createdAt,value
2022-12-03T00:02:40.010Z,2.57
2022-12-03T00:05:48.792Z,2.39
2022-12-03T00:08:51.959Z,2.59
2022-12-03T00:11:54.921Z,2.34
2022-12-03T00:14:58.064Z,2.26
2022-12-03T00:18:01.140Z,2.15
2022-12-03T00:21:03.870Z,2.06
2022-12-03T00:24:07.187Z,1.98
2022-12-03T00:27:09.731Z,1.99
2022-12-03T00:30:14.487Z,1.85
2022-12-03T00:33:17.190Z,1.74
2022-12-03T00:36:20.356Z,1.96
2022-12-03T00:39:23.145Z,1.88
2022-12-03T00:42:26.278Z,2.03
2022-12-03T00:45:28.974Z,2.36
2022-12-03T00:48:33.311Z,2.27
2022-12-03T00:51:36.046Z,1.92
2022-12-03T00:54:38.882Z,1.76
2022-12-03T00:57:42.147Z,1.88
2022-12-03T01:00:45.027Z,1.89
2022-12-03T01:03:47.800Z,1.67
2022-12-03T01:06:50.858Z,1.42
2022-12-03T01:09:53.761Z,1.29
2022-12-03T01:12:56.651Z,1.28
2022-12-03T01:15:59.310Z,1.36
2022-12-03T01:19:03.337Z,1.51
2022-12-03T01:22:05.998Z,1.23
2022-12-03T01:25:10.242Z,1.29
2022-12-03T01:28:12.798Z,1.25
2022-12-03T01:31:34.231Z,1.29
2022-12-03T01:34:36.918Z,1.22
2022-12-03T01:37:39.866Z,1.13
2022-12-03T01:40:42.758Z,1.00
2022-12-03T01:43:46.341Z,1.20
2022-12-03T01:46:50.063Z,1.21
2022-12-03T01:49:56.892Z,1.18
2022-12-03T01:53:02.469Z,1.24
2022-12-03T01:56:05.826Z,1.20
2022-12-03T01:59:13.708Z,1.37
2022-12-03T02:02:24.055Z,1.48
2022-12-03T02:05:29.977Z,1.34
2022-12-03T02:08:35.414Z,1.25
2022-12-03T02:11:42.954Z,1.32
2022-12-03T02:14:47.482Z,1.36
2022-12-03T02:17:50.751Z,1.34
2022-12-03T02:21:21.658Z,1.28
2022-12-03T02:24:40.022Z,1.37
2022-12-03T02:27:44.435Z,1.38
2022-12-03T02:30:47.157Z,1.46
2022-12-03T02:33:50.535Z,1.54
2022-12-03T02:36:53.159Z,1.49
2022-12-03T02:40:02.552Z,1.58
2022-12-03T02:43:06.007Z,1.65
2022-12-03T02:46:09.036Z,1.50
2022-12-03T02:49:11.958Z,1.43
2022-12-03T02:52:15.300Z,1.63
2022-12-03T02:55:18.466Z,1.31
2022-12-03T02:58:23.334Z,1.26
2022-12-03T03:01:26.114Z,1.18
2022-12-03T03:04:29.312Z,1.44
2022-12-03T03:07:32.014Z,1.36
2022-12-03T03:10:37.267Z,1.54
2022-12-03T03:13:40.347Z,1.63
2022-12-03T03:16:43.534Z,1.51
2022-12-03T03:19:46.795Z,1.50
2022-12-03T03:22:49.779Z,1.30
2022-12-03T03:26:07.231Z,1.40
2022-12-03T03:29:10.172Z,1.58
2022-12-03T03:32:12.887Z,1.67
2022-12-03T03:35:18.011Z,1.84
2022-12-03T03:38:22.275Z,1.68
2022-12-03T03:41:27.886Z,1.72
2022-12-03T03:44:30.583Z,1.63
2022-12-03T03:47:33.602Z,1.69
2022-12-03T03:50:36.843Z,1.68
2022-12-03T03:53:42.916Z,1.62
2022-12-03T03:56:45.702Z,1.68
2022-12-03T03:59:48.569Z,1.66
2022-12-03T04:02:52.558Z,1.61
2022-12-03T04:05:55.575Z,1.50
2022-12-03T04:08:58.286Z,1.63
2022-12-03T04:12:19.834Z,1.56
2022-12-03T04:15:23.211Z,1.24
2022-12-03T04:18:44.510Z,1.50
2022-12-03T04:22:05.550Z,1.53
2022-12-03T04:25:28.781Z,1.69
2022-12-03T04:28:49.866Z,1.64
2022-12-03T04:32:11.590Z,1.64
2022-12-03T04:35:33.195Z,1.63
2022-12-03T04:38:36.517Z,1.42
2022-12-03T04:41:39.164Z,1.58
2022-12-03T04:44:42.157Z,1.63
2022-12-03T04:47:45.110Z,1.52
2022-12-03T04:50:48.312Z,1.51
2022-12-03T04:53:51.079Z,1.58
2022-12-03T04:56:54.103Z,1.53
2022-12-03T04:59:56.740Z,1.51
2022-12-03T05:02:59.751Z,1.50
2022-12-03T05:06:02.433Z,1.61
2022-12-03T05:09:05.507Z,1.49
2022-12-03T05:12:08.110Z,1.55
2022-12-03T05:15:11.613Z,1.56
2022-12-03T05:18:14.239Z,1.46
2022-12-03T05:21:17.126Z,1.56
2022-12-03T05:24:19.724Z,1.54
2022-12-03T05:27:24.060Z,1.54
2022-12-03T05:30:27.143Z,1.71
2022-12-03T05:33:30.194Z,1.55
2022-12-03T05:36:32.846Z,1.55
2022-12-03T05:39:35.740Z,1.45
2022-12-03T05:42:56.937Z,1.40
2022-12-03T05:45:59.915Z,1.61
2022-12-03T05:49:05.679Z,1.53
2022-12-03T05:52:08.518Z,1.38
2022-12-03T05:55:11.872Z,1.50
2022-12-03T05:58:14.712Z,1.34
2022-12-03T06:01:17.252Z,1.28
2022-12-03T06:04:20.181Z,1.35
2022-12-03T06:07:22.731Z,1.35
2022-12-03T06:10:26.653Z,1.38
2022-12-03T06:13:29.278Z,1.42
2022-12-03T06:16:32.368Z,1.48
2022-12-03T06:19:36.199Z,1.42
2022-12-03T06:22:39.215Z,1.40
2022-12-03T06:25:41.748Z,1.52
2022-12-03T06:28:47.629Z,1.46
2022-12-03T06:31:50.347Z,1.52
2022-12-03T06:34:53.659Z,1.39
2022-12-03T06:37:56.390Z,1.29
2022-12-03T06:40:59.241Z,1.40
2022-12-03T06:44:01.923Z,1.65
2022-12-03T06:47:04.869Z,1.82
2022-12-03T06:50:08.943Z,1.81
2022-12-03T06:53:11.819Z,1.79
2022-12-03T06:56:14.431Z,1.87
2022-12-03T06:59:18.547Z,1.75
2022-12-03T07:02:21.205Z,1.71
2022-12-03T07:05:24.095Z,1.65
2022-12-03T07:08:28.100Z,1.68
2022-12-03T07:11:33.530Z,1.90
2022-12-03T07:14:36.078Z,1.88
2022-12-03T07:17:39.155Z,2.03
2022-12-03T07:20:41.912Z,2.02
2022-12-03T07:23:45.015Z,2.10
2022-12-03T07:26:47.658Z,2.17
2022-12-03T07:29:50.574Z,2.31
2022-12-03T07:32:53.437Z,2.31
2022-12-03T07:35:56.346Z,2.42
2022-12-03T07:39:01.075Z,2.53
2022-12-03T07:42:04.138Z,2.51
2022-12-03T07:45:07.378Z,2.73
2022-12-03T07:48:10.278Z,2.75
2022-12-03T07:51:15.421Z,2.84
2022-12-03T07:54:18.870Z,3.01
2022-12-03T07:57:21.797Z,3.17
2022-12-03T08:00:24.718Z,2.92
2022-12-03T08:03:27.652Z,2.96
2022-12-03T08:06:30.249Z,2.97
2022-12-03T08:09:33.200Z,3.21
2022-12-03T08:12:42.050Z,3.30
2022-12-03T08:15:45.694Z,3.36
2022-12-03T08:18:50.121Z,3.69
2022-12-03T08:21:57.961Z,3.79
2022-12-03T08:25:06.832Z,4.27
2022-12-03T08:28:18.886Z,5.81
2022-12-03T08:31:32.357Z,4.80
2022-12-03T08:34:41.264Z,4.66
2022-12-03T08:37:43.886Z,4.65
2022-12-03T08:40:49.475Z,4.62
2022-12-03T08:43:52.040Z,4.61
2022-12-03T08:47:22.274Z,4.59
2022-12-03T08:50:29.449Z,4.58
2022-12-03T08:53:38.633Z,4.23
2022-12-03T08:56:41.695Z,4.34
2022-12-03T08:59:45.771Z,4.55
2022-12-03T09:02:52.379Z,4.53
2022-12-03T09:05:55.204Z,4.78
2022-12-03T09:09:01.135Z,4.81
2022-12-03T09:12:06.845Z,4.72
2022-12-03T09:15:09.915Z,4.92
2022-12-03T09:18:14.576Z,5.07
2022-12-03T09:21:17.184Z,5.09
2022-12-03T09:24:20.215Z,5.06
2022-12-03T09:27:22.943Z,5.19
2022-12-03T09:30:25.926Z,5.19
2022-12-03T09:33:28.563Z,5.05
2022-12-03T09:36:31.608Z,5.25
2022-12-03T09:39:34.731Z,5.16
2022-12-03T09:42:38.168Z,5.37
2022-12-03T09:45:40.892Z,5.64
2022-12-03T09:48:43.915Z,5.70
2022-12-03T09:51:46.840Z,5.77
2022-12-03T09:54:49.902Z,5.61
2022-12-03T09:57:57.550Z,6.06
2022-12-03T10:01:00.568Z,6.03
2022-12-03T10:04:03.584Z,5.88
2022-12-03T10:07:06.214Z,6.16
2022-12-03T10:10:16.652Z,6.26
2022-12-03T10:13:37.442Z,6.27
2022-12-03T10:16:41.528Z,6.05
2022-12-03T10:19:44.794Z,5.97
2022-12-03T10:22:48.997Z,5.95
2022-12-03T10:25:54.683Z,6.20
2022-12-03T10:28:57.602Z,6.16
2022-12-03T10:32:08.983Z,6.37
2022-12-03T10:35:15.394Z,6.35
2022-12-03T10:38:22.487Z,6.39
2022-12-03T10:41:29.053Z,6.19
2022-12-03T10:44:31.616Z,6.46
2022-12-03T10:47:34.646Z,6.35
2022-12-03T10:50:37.767Z,6.38
2022-12-03T10:53:41.462Z,6.54
2022-12-03T10:56:45.305Z,6.86
2022-12-03T10:59:49.931Z,6.86
2022-12-03T11:02:56.666Z,7.14
2022-12-03T11:06:06.159Z,7.28
2022-12-03T11:09:19.698Z,7.17
2022-12-03T11:12:23.984Z,7.00
2022-12-03T11:15:44.545Z,7.18
2022-12-03T11:18:50.248Z,7.01
2022-12-03T11:22:05.667Z,7.21
2022-12-03T11:25:26.892Z,7.29
2022-12-03T11:28:34.550Z,7.20
2022-12-03T11:31:45.276Z,7.45
2022-12-03T11:34:48.892Z,7.34
2022-12-03T11:37:52.287Z,7.31
2022-12-03T11:41:15.654Z,7.43
2022-12-03T11:44:30.687Z,7.51
2022-12-03T11:47:58.416Z,7.60
2022-12-03T11:51:01.550Z,7.39
2022-12-03T11:54:04.227Z,7.60
2022-12-03T11:57:26.827Z,7.68
2022-12-03T12:00:30.282Z,7.70
2022-12-03T12:03:34.412Z,7.82
2022-12-03T12:06:43.046Z,7.59
2022-12-03T12:09:55.000Z,7.51
2022-12-03T12:12:57.819Z,7.65
2022-12-03T12:16:02.985Z,7.67
2022-12-03T12:19:30.296Z,7.80
2022-12-03T12:22:34.091Z,7.79
2022-12-03T12:25:41.442Z,7.67
2022-12-03T12:28:44.736Z,7.67
2022-12-03T12:31:53.770Z,7.85
2022-12-03T12:35:15.371Z,7.57
2022-12-03T12:38:24.301Z,7.66
2022-12-03T12:41:27.301Z,7.45
2022-12-03T12:44:29.863Z,7.58
2022-12-03T12:47:36.725Z,7.60
2022-12-03T12:50:44.267Z,7.62
2022-12-03T12:53:47.933Z,7.47
2022-12-03T12:56:50.562Z,7.56
2022-12-03T12:59:55.476Z,7.64
2022-12-03T13:03:02.834Z,7.47
2022-12-03T13:06:06.363Z,7.42
2022-12-03T13:09:18.493Z,7.50
2022-12-03T13:12:23.306Z,7.47
2022-12-03T13:16:08.911Z,7.42
2022-12-03T13:19:39.614Z,7.43
2022-12-03T13:22:49.515Z,7.29
2022-12-03T13:26:08.413Z,7.20
2022-12-03T13:29:18.812Z,7.17
2022-12-03T13:32:33.100Z,7.22
2022-12-03T13:35:36.472Z,7.24
2022-12-03T13:38:39.446Z,7.27
2022-12-03T13:42:01.370Z,7.25
2022-12-03T13:45:16.331Z,7.28
2022-12-03T13:48:23.308Z,7.24
2022-12-03T13:51:29.823Z,7.16
2022-12-03T13:54:39.351Z,7.12
2022-12-03T13:57:42.311Z,7.09
2022-12-03T14:00:45.394Z,7.12
2022-12-03T14:03:49.528Z,7.14
2022-12-03T14:06:52.174Z,7.02
2022-12-03T14:09:55.381Z,7.09
2022-12-03T14:12:58.861Z,7.03
2022-12-03T14:16:01.754Z,7.01
2022-12-03T14:19:04.368Z,6.91
2022-12-03T14:22:09.692Z,6.86
2022-12-03T14:25:12.307Z,6.83
2022-12-03T14:28:15.143Z,6.86
2022-12-03T14:31:17.829Z,6.72
2022-12-03T14:34:20.753Z,6.55
2022-12-03T14:37:23.372Z,6.62
2022-12-03T14:40:27.259Z,6.48
2022-12-03T14:43:30.055Z,6.37
2022-12-03T14:46:32.950Z,6.35
2022-12-03T14:49:35.694Z,6.27
2022-12-03T14:52:38.694Z,6.17
2022-12-03T14:55:41.307Z,6.10
2022-12-03T14:58:44.191Z,6.01
2022-12-03T15:01:46.936Z,5.93
2022-12-03T15:04:49.938Z,5.85
2022-12-03T15:07:52.602Z,5.76
2022-12-03T15:10:55.654Z,5.72
2022-12-03T15:13:58.342Z,5.57
2022-12-03T15:17:01.249Z,5.42
2022-12-03T15:20:04.331Z,5.27
2022-12-03T15:23:12.719Z,5.17
2022-12-03T15:26:16.732Z,5.03
2022-12-03T15:29:20.592Z,5.06
2022-12-03T15:32:23.250Z,5.08
2022-12-03T15:35:26.138Z,4.95
2022-12-03T15:38:29.157Z,4.82
2022-12-03T15:41:32.548Z,4.90
2022-12-03T15:44:35.226Z,4.89
2022-12-03T15:47:38.796Z,4.83
2022-12-03T15:50:41.332Z,4.74
2022-12-03T15:53:44.387Z,4.66
2022-12-03T15:56:47.074Z,4.54
2022-12-03T15:59:50.146Z,4.56
2022-12-03T16:02:53.330Z,4.49
2022-12-03T16:05:56.290Z,4.47
2022-12-03T16:08:59.132Z,4.40
2022-12-03T16:12:02.143Z,4.46
2022-12-03T16:15:05.196Z,4.50
2022-12-03T16:18:08.211Z,4.43
2022-12-03T16:21:10.867Z,4.43
2022-12-03T16:24:13.937Z,4.46
2022-12-03T16:27:16.570Z,4.38
2022-12-03T16:30:19.553Z,4.42
2022-12-03T16:33:27.311Z,4.66
2022-12-03T16:36:30.922Z,4.66
2022-12-03T16:39:33.487Z,4.70
2022-12-03T16:42:37.395Z,4.67
2022-12-03T16:45:56.003Z,4.75
2022-12-03T16:48:59.458Z,4.72
2022-12-03T16:52:02.295Z,4.69
2022-12-03T16:55:05.557Z,4.63
2022-12-03T16:58:08.127Z,4.65
2022-12-03T17:01:11.529Z,4.67
2022-12-03T17:04:14.206Z,4.66
2022-12-03T17:07:17.099Z,4.56
2022-12-03T17:10:19.861Z,4.64
2022-12-03T17:13:23.374Z,4.62
2022-12-03T17:16:26.226Z,4.59
2022-12-03T17:19:29.447Z,4.57
2022-12-03T17:22:32.272Z,4.54
2022-12-03T17:25:35.618Z,4.64
2022-12-03T17:28:38.298Z,4.58
2022-12-03T17:31:42.765Z,4.55
2022-12-03T17:34:45.613Z,4.58
2022-12-03T17:37:48.504Z,4.65
2022-12-03T17:40:51.289Z,4.59
2022-12-03T17:43:54.374Z,4.62
2022-12-03T17:46:57.018Z,4.60
2022-12-03T17:50:00.203Z,4.55
2022-12-03T17:53:05.487Z,4.54
2022-12-03T17:56:08.394Z,4.52
2022-12-03T17:59:12.705Z,4.47
2022-12-03T18:02:15.994Z,4.41
2022-12-03T18:05:18.941Z,4.41
2022-12-03T18:08:21.801Z,4.35
2022-12-03T18:11:25.145Z,4.44
2022-12-03T18:14:27.977Z,4.34
2022-12-03T18:17:30.884Z,4.34
2022-12-03T18:20:33.572Z,4.35
2022-12-03T18:23:36.660Z,4.26
2022-12-03T18:26:39.259Z,4.34
2022-12-03T18:29:42.098Z,4.39
2022-12-03T18:32:44.702Z,4.38
2022-12-03T18:35:47.644Z,4.37
2022-12-03T18:38:53.023Z,4.42
2022-12-03T18:41:56.001Z,4.31
2022-12-03T18:44:59.435Z,4.37
2022-12-03T18:48:02.484Z,4.23
2022-12-03T18:51:20.046Z,4.29
2022-12-03T18:54:23.265Z,4.22
2022-12-03T18:57:25.906Z,4.19
2022-12-03T19:00:29.057Z,4.13
2022-12-03T19:03:32.531Z,4.11
2022-12-03T19:06:35.726Z,3.96
2022-12-03T19:09:39.711Z,4.08
2022-12-03T19:12:42.795Z,4.09
2022-12-03T19:15:46.409Z,4.12
2022-12-03T19:18:49.331Z,4.01
2022-12-03T19:21:52.252Z,4.02
2022-12-03T19:24:55.965Z,4.03
2022-12-03T19:27:58.994Z,3.90
2022-12-03T19:31:04.909Z,3.84
2022-12-03T19:34:07.527Z,3.85
2022-12-03T19:37:10.602Z,3.88
2022-12-03T19:40:15.111Z,3.90
2022-12-03T19:43:18.373Z,3.93
2022-12-03T19:46:22.867Z,3.93
2022-12-03T19:49:26.590Z,3.93
2022-12-03T19:52:29.736Z,4.08
2022-12-03T19:55:34.789Z,3.98
2022-12-03T19:58:39.347Z,3.91
2022-12-03T20:01:43.590Z,3.98
2022-12-03T20:04:46.862Z,3.98
2022-12-03T20:07:49.959Z,4.02
2022-12-03T20:11:17.550Z,3.93
2022-12-03T20:14:20.331Z,3.90
2022-12-03T20:17:23.542Z,3.95
2022-12-03T20:20:27.704Z,4.04
2022-12-03T20:23:30.799Z,4.11
2022-12-03T20:26:34.233Z,4.10
2022-12-03T20:29:37.411Z,4.09
2022-12-03T20:32:45.155Z,4.13
2022-12-03T20:35:55.374Z,4.02
2022-12-03T20:39:05.614Z,4.03
2022-12-03T20:42:10.678Z,4.05
2022-12-03T20:45:13.548Z,4.18
2022-12-03T20:48:16.667Z,4.20
2022-12-03T20:51:22.391Z,4.29
2022-12-03T20:54:25.483Z,4.29
2022-12-03T20:57:28.222Z,4.27
2022-12-03T21:00:31.434Z,4.19
2022-12-03T21:03:34.299Z,4.20
2022-12-03T21:06:37.959Z,4.23
2022-12-03T21:09:40.843Z,4.21
2022-12-03T21:12:44.440Z,4.30
2022-12-03T21:15:47.411Z,4.28
2022-12-03T21:18:50.526Z,4.28
2022-12-03T21:21:53.392Z,4.31
2022-12-03T21:24:56.420Z,4.21
2022-12-03T21:27:59.196Z,4.18
2022-12-03T21:31:08.512Z,4.10
2022-12-03T21:34:12.952Z,4.16
2022-12-03T21:37:16.024Z,4.09
2022-12-03T21:40:19.400Z,4.22
2022-12-03T21:43:23.011Z,4.11
2022-12-03T21:47:12.408Z,4.14
2022-12-03T21:49:49.849Z,4.00
2022-12-03T21:52:52.771Z,4.15
2022-12-03T21:55:55.622Z,4.22
2022-12-03T21:58:58.225Z,4.18
2022-12-03T22:02:01.247Z,4.03
2022-12-03T22:05:04.511Z,4.08
2022-12-03T22:08:07.517Z,4.11
2022-12-03T22:11:13.713Z,4.13
2022-12-03T22:14:16.328Z,4.19
2022-12-03T22:17:19.382Z,4.09
2022-12-03T22:20:22.068Z,4.05
2022-12-03T22:23:24.971Z,3.89
2022-12-03T22:26:27.580Z,3.92
2022-12-03T22:29:30.887Z,4.10
2022-12-03T22:32:33.432Z,4.13
2022-12-03T22:35:36.258Z,4.08
2022-12-03T22:38:39.309Z,4.05
2022-12-03T22:41:42.232Z,4.13
2022-12-03T22:44:44.922Z,4.28
2022-12-03T22:47:47.738Z,4.29
2022-12-03T22:50:52.207Z,4.19
2022-12-03T22:53:58.182Z,4.13
2022-12-03T22:57:00.802Z,4.19
2022-12-03T23:00:10.396Z,4.01
2022-12-03T23:03:13.047Z,4.04
2022-12-03T23:06:16.447Z,4.05
2022-12-03T23:09:19.092Z,4.13
2022-12-03T23:12:22.425Z,4.11
2022-12-03T23:15:24.972Z,4.40
2022-12-03T23:18:27.852Z,4.19
2022-12-03T23:21:33.235Z,4.23
2022-12-03T23:24:36.436Z,4.39
2022-12-03T23:27:39.059Z,4.21
2022-12-03T23:30:41.966Z,4.26
2022-12-03T23:33:44.770Z,4.24
2022-12-03T23:36:47.651Z,4.05
2022-12-03T23:39:50.714Z,4.18
2022-12-03T23:42:53.701Z,4.13
2022-12-03T23:46:03.900Z,3.97
2022-12-03T23:49:07.079Z,4.09
2022-12-03T23:52:09.607Z,4.02
2022-12-03T23:55:12.515Z,4.00
2022-12-03T23:58:15.505Z,3.99
